.
WxDataArchive / Data Records for 2014-12-28
2014-12-27 December 2014 2014-12-29

Data Records for Sunday, 28 December 2014

Time	Temp	Chill	HIndex	Humid	Dewpt	 Wind 	HiWind	WindDir	Rain 	Barom
-----	----	-----	------	-----	-----	------	------	-------	-----	-----
00:00	34.1	34.1	34.1	93	32.3	0	2	315	0.01	30.045 
00:05	34.1	34.1	34.1	93	32.3	0	1	315	0.00	30.045 
00:10	34.1	34.1	34.1	93	32.3	0	1	315	0.00	30.045 
00:15	34.3	34.3	34.3	93	32.5	0	1	315	0.00	30.045 
00:20	34.3	34.3	34.3	93	32.5	0	1	315	0.00	30.045 
00:25	34.3	34.3	34.3	94	32.8	0	2	315	0.00	30.045 
00:30	34.4	34.4	34.4	94	32.9	0	1	315	0.00	30.050 
00:35	34.4	34.4	34.4	94	32.9	0	2	315	0.00	30.050 
00:40	34.4	34.4	34.4	94	32.9	0	2	315	0.01	30.050 
00:45	34.4	34.4	34.4	93	32.6	0	3	315	0.00	30.039 
00:50	34.3	34.3	34.3	93	32.5	1	4	315	0.00	30.039 
00:55	34.1	34.1	34.1	93	32.3	1	3	248	0.00	30.039 
01:00	34.0	34.0	34.0	93	32.2	1	3	248	0.00	30.034 
01:05	33.8	33.8	33.8	93	32.0	1	4	248	0.00	30.034 
01:10	33.8	33.8	33.8	92	31.7	0	3	270	0.00	30.034 
01:15	33.8	33.8	33.8	92	31.7	0	2	270	0.00	30.032 
01:20	33.8	33.8	33.8	92	31.7	1	4	270	0.00	30.032 
01:25	33.8	33.8	33.8	91	31.5	1	3	270	0.00	30.032 
01:30	33.8	33.8	33.8	91	31.5	0	3	292	0.00	30.034 
01:35	33.8	33.8	33.8	90	31.2	1	3	292	0.00	30.034 
01:40	33.8	33.8	33.8	90	31.2	1	3	292	0.00	30.034 
01:45	33.8	33.8	33.8	90	31.2	1	4	292	0.00	30.035 
01:50	33.8	33.8	33.8	89	30.9	1	4	338	0.00	30.035 
01:55	33.8	33.8	33.8	88	30.6	1	3	315	0.00	30.035 
02:00	33.8	33.8	33.8	88	30.6	0	3	292	0.00	30.039 
02:05	33.8	33.8	33.8	88	30.6	1	3	292	0.00	30.039 
02:10	33.8	33.8	33.8	87	30.3	0	2	292	0.00	30.039 
02:15	33.8	33.8	33.8	87	30.3	0	2	292	0.00	30.047 
02:20	33.8	33.8	33.8	87	30.3	1	3	315	0.00	30.047 
02:25	33.8	33.8	33.8	86	30.1	1	4	315	0.00	30.047 
02:30	33.8	33.8	33.8	86	30.1	1	4	315	0.00	30.044 
02:35	33.8	33.8	33.8	85	29.8	1	4	292	0.00	30.044 
02:40	33.7	33.7	33.7	85	29.7	1	6	315	0.00	30.044 
02:45	33.7	33.7	33.7	84	29.4	1	4	292	0.00	30.054 
02:50	33.8	33.8	33.8	84	29.5	1	4	292	0.00	30.054 
02:55	33.8	33.8	33.8	84	29.5	1	3	292	0.00	30.054 
03:00	33.7	33.7	33.7	84	29.4	1	3	292	0.00	30.070 
03:05	33.8	33.8	33.8	84	29.5	0	1	292	0.00	30.070 
03:10	33.7	33.7	33.7	84	29.4	1	4	292	0.00	30.070 
03:15	33.7	33.7	33.7	84	29.4	0	3	315	0.00	30.068 
03:20	33.7	33.7	33.7	84	29.4	0	2	338	0.00	30.068 
03:25	33.7	33.7	33.7	84	29.4	0	2	338	0.00	30.068 
03:30	33.7	33.7	33.7	84	29.4	0	3	338	0.00	30.062 
03:35	33.7	33.7	33.7	84	29.4	0	2	338	0.00	30.062 
03:40	33.7	33.7	33.7	84	29.4	0	3	338	0.00	30.062 
03:45	33.7	33.7	33.7	84	29.4	0	1	338	0.00	30.066 
03:50	33.7	33.7	33.7	84	29.4	0	2	338	0.00	30.066 
03:55	33.7	33.7	33.7	84	29.4	0	2	338	0.00	30.066 
04:00	33.7	33.7	33.7	83	29.1	0	2	338	0.00	30.056 
04:05	33.7	33.7	33.7	83	29.1	0	2	338	0.00	30.056 
04:10	33.7	33.7	33.7	83	29.1	0	1	338	0.00	30.056 
04:15	33.7	33.7	33.7	83	29.1	0	1	338	0.00	30.054 
04:20	33.8	33.8	33.8	83	29.2	0	1	338	0.00	30.054 
04:25	33.8	33.8	33.8	83	29.2	0	1	338	0.00	30.054 
04:30	33.8	33.8	33.8	83	29.2	0	0	---	0.00	30.058 
04:35	33.8	33.8	33.8	83	29.2	0	1	338	0.00	30.058 
04:40	33.8	33.8	33.8	83	29.2	0	0	---	0.00	30.058 
04:45	33.8	33.8	33.8	83	29.2	0	0	---	0.00	30.058 
04:50	33.8	33.8	33.8	83	29.2	0	1	338	0.00	30.058 
04:55	33.8	33.8	33.8	84	29.5	0	0	---	0.00	30.058 
05:00	33.7	33.7	33.7	84	29.4	0	0	---	0.00	30.064 
05:05	33.7	33.7	33.7	84	29.4	0	0	---	0.00	30.064 
05:10	33.7	33.7	33.7	84	29.4	0	0	---	0.00	30.064 
05:15	33.7	33.7	33.7	84	29.4	0	0	---	0.00	30.070 
05:20	33.8	33.8	33.8	84	29.5	0	0	---	0.00	30.070 
05:25	33.8	33.8	33.8	84	29.5	0	1	338	0.00	30.070 
05:30	33.8	33.8	33.8	84	29.5	0	1	338	0.00	30.071 
05:35	33.8	33.8	33.8	84	29.5	0	1	338	0.00	30.071 
05:40	33.8	33.8	33.8	84	29.5	0	1	338	0.00	30.071 
05:45	33.8	33.8	33.8	84	29.5	0	0	---	0.00	30.086 
05:50	33.8	33.8	33.8	84	29.5	0	0	---	0.00	30.086 
05:55	33.8	33.8	33.8	84	29.5	0	1	338	0.00	30.086 
06:00	33.8	33.8	33.8	84	29.5	0	0	---	0.00	30.088 
06:05	33.8	33.8	33.8	84	29.5	0	1	338	0.00	30.088 
06:10	33.8	33.8	33.8	84	29.5	0	0	---	0.00	30.088 
06:15	33.8	33.8	33.8	84	29.5	0	1	338	0.00	30.090 
06:20	33.8	33.8	33.8	84	29.5	0	1	338	0.00	30.090 
06:25	33.8	33.8	33.8	84	29.5	0	0	---	0.00	30.090 
06:30	33.8	33.8	33.8	84	29.5	0	0	---	0.00	30.102 
06:35	33.8	33.8	33.8	84	29.5	0	0	---	0.00	30.102 
06:40	33.8	33.8	33.8	84	29.5	0	0	---	0.00	30.102 
06:45	33.8	33.8	33.8	84	29.5	0	0	---	0.00	30.089 
06:50	33.8	33.8	33.8	84	29.5	0	1	338	0.00	30.089 
06:55	33.8	33.8	33.8	84	29.5	0	0	---	0.00	30.089 
07:00	33.8	33.8	33.8	84	29.5	0	0	---	0.00	30.099 
07:05	33.7	33.7	33.7	84	29.4	0	1	338	0.00	30.099 
07:10	33.7	33.7	33.7	84	29.4	0	1	338	0.00	30.099 
07:15	33.7	33.7	33.7	84	29.4	0	1	338	0.00	30.100 
07:20	33.7	33.7	33.7	84	29.4	0	1	338	0.00	30.100 
07:25	33.7	33.7	33.7	84	29.4	0	1	338	0.00	30.100 
07:30	33.7	33.7	33.7	84	29.4	0	1	338	0.00	30.099 
07:35	33.7	33.7	33.7	84	29.4	0	1	338	0.00	30.099 
07:40	33.7	33.7	33.7	84	29.4	0	0	---	0.00	30.099 
07:45	33.7	33.7	33.7	84	29.4	0	1	338	0.00	30.107 
07:50	33.7	33.7	33.7	84	29.4	0	1	338	0.00	30.107 
07:55	33.7	33.7	33.7	84	29.4	0	1	338	0.00	30.107 
08:00	33.7	33.7	33.7	84	29.4	0	1	338	0.00	30.108 
08:05	33.7	33.7	33.7	84	29.4	0	1	338	0.00	30.108 
08:10	33.7	33.7	33.7	84	29.4	0	2	338	0.00	30.108 
08:15	33.7	33.7	33.7	84	29.4	0	1	338	0.00	30.113 
08:20	33.7	33.7	33.7	84	29.4	0	1	338	0.00	30.113 
08:25	33.7	33.7	33.7	84	29.4	0	1	338	0.00	30.113 
08:30	33.7	33.7	33.7	83	29.1	0	1	338	0.00	30.111 
08:35	33.7	33.7	33.7	84	29.4	0	1	338	0.00	30.111 
08:40	33.7	33.7	33.7	84	29.4	0	1	338	0.00	30.111 
08:45	33.7	33.7	33.7	83	29.1	0	1	338	0.00	30.114 
08:50	33.7	33.7	33.7	83	29.1	0	1	338	0.00	30.114 
08:55	33.7	33.7	33.7	83	29.1	0	1	338	0.00	30.114 
09:00	33.7	33.7	33.7	83	29.1	0	1	338	0.00	30.120 
09:05	33.7	33.7	33.7	84	29.4	0	0	---	0.00	30.120 
09:10	33.7	33.7	33.7	84	29.4	0	1	338	0.00	30.120 
09:15	33.7	33.7	33.7	83	29.1	0	1	338	0.00	30.125 
09:20	33.8	33.8	33.8	83	29.2	0	2	338	0.00	30.125 
09:25	33.8	33.8	33.8	83	29.2	0	1	338	0.00	30.125 
09:30	33.8	33.8	33.8	82	28.9	0	1	248	0.00	30.138 
09:35	33.8	33.8	33.8	81	28.6	0	2	248	0.00	30.138 
09:40	33.8	33.8	33.8	81	28.6	0	2	248	0.00	30.138 
09:45	33.8	33.8	33.8	81	28.6	0	2	292	0.00	30.145 
09:50	33.8	33.8	33.8	80	28.3	0	3	292	0.00	30.145 
09:55	33.8	33.8	33.8	79	28.0	1	4	315	0.00	30.145 
10:00	33.8	33.8	33.8	78	27.7	0	3	315	0.00	30.151 
10:05	33.8	33.8	33.8	77	27.4	1	3	315	0.00	30.151 
10:10	33.8	33.8	33.8	77	27.4	1	3	315	0.00	30.151 
10:15	34.0	34.0	34.0	77	27.6	0	2	158	0.00	30.160 
10:20	34.0	34.0	34.0	75	26.9	1	5	248	0.00	30.160 
10:25	34.0	34.0	34.0	74	26.6	1	3	338	0.00	30.160 
10:30	34.0	34.0	34.0	73	26.3	1	4	315	0.00	30.160 
10:35	34.0	34.0	34.0	73	26.3	1	3	315	0.00	30.160 
10:40	34.1	34.1	34.1	72	26.0	1	3	292	0.00	30.160 
10:45	34.1	34.1	34.1	72	26.0	1	4	315	0.00	30.161 
10:50	34.1	34.1	34.1	73	26.4	0	4	315	0.00	30.161 
10:55	34.3	34.3	34.3	72	26.2	0	2	315	0.00	30.161 
11:00	34.4	34.4	34.4	71	26.0	1	3	315	0.00	30.162 
11:05	34.4	34.4	34.4	70	25.6	1	3	292	0.00	30.162 
11:10	34.4	34.4	34.4	69	25.3	2	7	315	0.00	30.162 
11:15	34.4	34.4	34.4	68	24.9	1	3	315	0.00	30.157 
11:20	34.4	34.4	34.4	68	24.9	0	2	315	0.00	30.157 
11:25	34.4	34.4	34.4	69	25.3	1	5	315	0.00	30.157 
11:30	34.4	34.4	34.4	69	25.3	1	4	338	0.00	30.147 
11:35	34.4	34.4	34.4	69	25.3	1	4	270	0.00	30.147 
11:40	34.4	34.4	34.4	69	25.3	0	2	270	0.00	30.147 
11:45	34.4	34.4	34.4	69	25.3	1	4	270	0.00	30.144 
11:50	34.4	34.4	34.4	69	25.3	1	4	292	0.00	30.144 
11:55	34.3	34.3	34.3	69	25.2	1	4	315	0.00	30.144 
12:00	34.4	34.4	34.4	71	26.0	1	5	315	0.00	30.141 
12:05	34.4	34.4	34.4	70	25.6	1	4	315	0.00	30.141 
12:10	34.4	34.4	34.4	69	25.3	0	2	315	0.00	30.141 
12:15	34.7	34.7	34.7	70	25.9	1	3	315	0.00	30.135 
12:20	34.7	34.7	34.7	68	25.2	1	5	338	0.00	30.135 
12:25	34.9	34.9	34.9	67	25.1	1	3	338	0.00	30.135 
12:30	34.9	34.9	34.9	67	25.1	1	3	315	0.00	30.131 
12:35	34.9	34.9	34.9	68	25.4	1	3	315	0.00	30.131 
12:40	35.0	35.0	35.0	68	25.5	1	3	315	0.00	30.131 
12:45	34.9	34.9	34.9	68	25.4	1	2	315	0.00	30.126 
12:50	34.9	34.9	34.9	68	25.4	1	3	270	0.00	30.126 
12:55	35.0	35.0	35.0	68	25.5	1	2	270	0.00	30.126 
13:00	35.0	35.0	35.0	68	25.5	1	3	270	0.00	30.115 
13:05	35.0	35.0	35.0	68	25.5	1	4	292	0.00	30.115 
13:10	35.2	35.2	35.2	69	26.1	0	2	292	0.00	30.115 
13:15	35.3	35.3	35.3	68	25.8	0	3	315	0.00	30.121 
13:20	35.5	35.5	35.5	68	26.0	0	2	315	0.00	30.121 
13:25	35.3	35.3	35.3	67	25.5	1	5	315	0.00	30.121 
13:30	35.5	35.5	35.5	68	26.0	1	3	292	0.00	30.122 
13:35	35.3	35.3	35.3	67	25.5	1	3	292	0.00	30.122 
13:40	35.5	35.5	35.5	68	26.0	0	2	292	0.00	30.122 
13:45	35.5	35.5	35.5	67	25.6	0	2	292	0.00	30.116 
13:50	35.6	35.6	35.6	68	26.1	1	4	292	0.00	30.116 
13:55	35.3	35.3	35.3	67	25.5	1	2	338	0.00	30.116 
14:00	35.3	35.3	35.3	67	25.5	0	3	270	0.00	30.118 
14:05	35.3	35.3	35.3	68	25.8	0	2	270	0.00	30.118 
14:10	35.3	35.3	35.3	69	26.2	1	4	315	0.00	30.118 
14:15	35.2	35.2	35.2	70	26.4	1	3	292	0.00	30.127 
14:20	35.3	35.3	35.3	71	26.9	0	2	292	0.00	30.127 
14:25	35.2	35.2	35.2	70	26.4	0	2	292	0.00	30.127 
14:30	35.2	35.2	35.2	71	26.8	1	2	292	0.00	30.130 
14:35	35.0	35.0	35.0	70	26.2	1	3	292	0.00	30.130 
14:40	35.0	35.0	35.0	69	25.9	1	2	292	0.00	30.130 
14:45	34.9	34.9	34.9	70	26.1	0	2	292	0.00	30.130 
14:50	35.0	35.0	35.0	69	25.9	1	2	292	0.00	30.130 
14:55	35.0	35.0	35.0	70	26.2	0	1	292	0.00	30.130 
15:00	35.0	35.0	35.0	69	25.9	0	2	292	0.00	30.139 
15:05	35.0	35.0	35.0	69	25.9	0	2	292	0.00	30.139 
15:10	35.0	35.0	35.0	69	25.9	0	2	292	0.00	30.139 
15:15	34.9	34.9	34.9	69	25.8	1	3	292	0.00	30.139 
15:20	34.7	34.7	34.7	68	25.2	0	2	315	0.00	30.139 
15:25	34.6	34.6	34.6	69	25.5	0	2	315	0.00	30.139 
15:30	34.6	34.6	34.6	69	25.5	1	3	315	0.00	30.134 
15:35	34.4	34.4	34.4	68	24.9	1	4	315	0.00	30.134 
15:40	34.4	34.4	34.4	69	25.3	0	1	315	0.00	30.134 
15:45	34.4	34.4	34.4	69	25.3	1	3	315	0.00	30.151 
15:50	34.7	34.7	34.7	69	25.6	0	2	315	0.00	30.151 
15:55	34.7	34.7	34.7	68	25.2	1	3	315	0.00	30.151 
16:00	34.6	34.6	34.6	68	25.1	1	3	315	0.00	30.153 
16:05	34.4	34.4	34.4	68	24.9	0	2	315	0.00	30.153 
16:10	34.3	34.3	34.3	69	25.2	0	1	315	0.00	30.153 
16:15	34.3	34.3	34.3	69	25.2	0	1	315	0.00	30.163 
16:20	34.1	34.1	34.1	69	25.0	0	1	315	0.00	30.163 
16:25	34.1	34.1	34.1	70	25.4	0	1	315	0.00	30.163 
16:30	34.1	34.1	34.1	70	25.4	0	2	315	0.00	30.167 
16:35	34.0	34.0	34.0	69	24.9	0	2	315	0.00	30.167 
16:40	33.8	33.8	33.8	69	24.7	0	2	315	0.00	30.167 
16:45	33.7	33.7	33.7	70	25.0	0	2	315	0.00	30.171 
16:50	33.5	33.5	33.5	70	24.8	0	1	315	0.00	30.171 
16:55	33.4	33.4	33.4	70	24.7	0	1	315	0.00	30.171 
17:00	33.2	33.2	33.2	70	24.5	0	1	315	0.00	30.173 
17:05	33.1	33.1	33.1	71	24.7	0	1	315	0.00	30.173 
17:10	32.9	32.9	32.9	71	24.5	0	2	315	0.00	30.173 
17:15	32.8	32.8	32.8	71	24.4	0	1	315	0.00	30.177 
17:20	32.7	32.7	32.7	72	24.7	0	1	315	0.00	30.177 
17:25	32.5	32.5	32.5	72	24.5	0	2	315	0.00	30.177 
17:30	32.4	32.4	32.4	72	24.4	0	0	---	0.00	30.178 
17:35	32.2	32.2	32.2	72	24.2	0	1	315	0.00	30.178 
17:40	32.1	32.1	32.1	73	24.4	0	1	315	0.00	30.178 
17:45	31.9	31.9	31.9	73	24.2	0	0	---	0.00	30.180 
17:50	31.6	31.6	31.6	73	24.0	0	0	---	0.00	30.180 
17:55	31.3	31.3	31.3	74	24.0	0	0	---	0.00	30.180 
18:00	31.0	31.0	31.0	74	23.7	0	0	---	0.00	30.183 
18:05	30.7	30.7	30.7	75	23.7	0	0	---	0.00	30.183 
18:10	30.4	30.4	30.4	75	23.4	0	0	---	0.00	30.183 
18:15	30.1	30.1	30.1	76	23.5	0	0	---	0.00	30.184 
18:20	29.8	29.8	29.8	77	23.5	0	0	---	0.00	30.184 
18:25	29.7	29.7	29.7	77	23.4	0	0	---	0.00	30.184 
18:30	29.4	29.4	29.4	77	23.1	0	0	---	0.00	30.187 
18:35	29.3	29.3	29.3	78	23.3	0	0	---	0.00	30.187 
18:40	29.0	29.0	29.0	79	23.3	0	0	---	0.00	30.187 
18:45	28.8	28.8	28.8	79	23.1	0	0	---	0.00	30.182 
18:50	28.5	28.5	28.5	80	23.1	0	0	---	0.00	30.182 
18:55	28.4	28.4	28.4	80	23.0	0	0	---	0.00	30.182 
19:00	28.2	28.2	28.2	81	23.1	0	0	---	0.00	30.191 
19:05	28.2	28.2	28.2	81	23.1	0	0	---	0.00	30.191 
19:10	28.1	28.1	28.1	81	23.0	0	0	---	0.00	30.191 
19:15	27.9	27.9	27.9	82	23.1	0	0	---	0.00	30.195 
19:20	27.9	27.9	27.9	82	23.1	0	0	---	0.00	30.195 
19:25	27.9	27.9	27.9	82	23.1	0	0	---	0.00	30.195 
19:30	27.8	27.8	27.8	83	23.3	0	0	---	0.00	30.200 
19:35	27.8	27.8	27.8	83	23.3	0	0	---	0.00	30.200 
19:40	27.8	27.8	27.8	83	23.3	0	0	---	0.00	30.200 
19:45	27.8	27.8	27.8	84	23.6	0	0	---	0.00	30.202 
19:50	27.9	27.9	27.9	84	23.7	0	0	---	0.00	30.202 
19:55	27.9	27.9	27.9	84	23.7	0	0	---	0.00	30.202 
20:00	27.9	27.9	27.9	84	23.7	0	0	---	0.00	30.201 
20:05	27.9	27.9	27.9	84	23.7	0	0	---	0.00	30.201 
20:10	27.8	27.8	27.8	84	23.6	0	0	---	0.00	30.201 
20:15	27.6	27.6	27.6	84	23.4	0	0	---	0.00	30.206 
20:20	27.6	27.6	27.6	84	23.4	0	0	---	0.00	30.206 
20:25	27.6	27.6	27.6	84	23.4	0	0	---	0.00	30.206 
20:30	27.8	27.8	27.8	84	23.6	0	0	---	0.00	30.208 
20:35	27.9	27.9	27.9	84	23.7	0	1	315	0.00	30.208 
20:40	27.9	27.9	27.9	84	23.7	0	0	---	0.00	30.208 
20:45	27.9	27.9	27.9	84	23.7	0	0	---	0.00	30.214 
20:50	27.9	27.9	27.9	84	23.7	0	0	---	0.00	30.214 
20:55	27.8	27.8	27.8	84	23.6	0	0	---	0.00	30.214 
21:00	27.8	27.8	27.8	84	23.6	0	0	---	0.00	30.212 
21:05	27.6	27.6	27.6	84	23.4	0	0	---	0.00	30.212 
21:10	27.5	27.5	27.5	84	23.3	0	0	---	0.00	30.212 
21:15	27.3	27.3	27.3	84	23.1	0	0	---	0.00	30.208 
21:20	27.2	27.2	27.2	84	23.0	0	0	---	0.00	30.208 
21:25	27.0	27.0	27.0	84	22.8	0	0	---	0.00	30.208 
21:30	27.0	27.0	27.0	85	23.1	0	0	---	0.00	30.209 
21:35	26.9	26.9	26.9	85	23.0	0	0	---	0.00	30.209 
21:40	26.7	26.7	26.7	85	22.8	0	0	---	0.00	30.209 
21:45	26.6	26.6	26.6	85	22.7	0	0	---	0.00	30.215 
21:50	26.6	26.6	26.6	85	22.7	0	0	---	0.00	30.215 
21:55	26.6	26.6	26.6	85	22.7	0	0	---	0.00	30.215 
22:00	26.4	26.4	26.4	86	22.8	0	0	---	0.00	30.227 
22:05	26.3	26.3	26.3	86	22.7	0	0	---	0.00	30.227 
22:10	26.3	26.3	26.3	86	22.7	0	0	---	0.00	30.227 
22:15	26.3	26.3	26.3	87	23.0	0	0	---	0.00	30.217 
22:20	26.3	26.3	26.3	87	23.0	0	0	---	0.00	30.217 
22:25	26.1	26.1	26.1	87	22.8	0	0	---	0.00	30.217 
22:30	26.1	26.1	26.1	87	22.8	0	0	---	0.00	30.221 
22:35	26.1	26.1	26.1	87	22.8	0	0	---	0.00	30.221 
22:40	26.1	26.1	26.1	87	22.8	0	0	---	0.00	30.221 
22:45	26.1	26.1	26.1	87	22.8	0	0	---	0.00	30.226 
22:50	26.1	26.1	26.1	87	22.8	0	0	---	0.00	30.226 
22:55	26.1	26.1	26.1	87	22.8	0	0	---	0.00	30.226 
23:00	26.0	26.0	26.0	87	22.7	0	0	---	0.00	30.225 
23:05	25.8	25.8	25.8	87	22.5	0	0	---	0.00	30.225 
23:10	25.7	25.7	25.7	88	22.6	0	0	---	0.00	30.225 
23:15	25.7	25.7	25.7	88	22.6	0	0	---	0.00	30.231 
23:20	25.6	25.6	25.6	88	22.5	0	0	---	0.00	30.231 
23:25	25.4	25.4	25.4	88	22.4	0	0	---	0.00	30.231 
23:30	25.4	25.4	25.4	88	22.4	0	0	---	0.00	30.235 
23:35	25.3	25.3	25.3	88	22.3	0	0	---	0.00	30.235 
23:40	25.1	25.1	25.1	88	22.1	0	0	---	0.00	30.235 
23:45	25.0	25.0	25.0	88	22.0	0	0	---	0.00	30.239 
23:50	24.8	24.8	24.8	88	21.8	0	0	---	0.00	30.239 
23:55	24.7	24.7	24.7	88	21.7	0	0	---	0.00	30.239 

CoCoRaHS
IN-AL-39
A2 Web Hosting
Creative Commons License
GoDaddy
search engine by freefind advanced

loaded 2018-11-16 01:14:57 • last modified 2010-11-18 10:43:29
Privacy PolicyDisclaimer
• wx.awcolley.com is powered by PmWiki v.2002016 •
• all content (unless otherwise noted) © 2018 A W Colley